sensor_id;sensor_type;location;lat;lon;timestamp;pressure;altitude;pressure_sealevel;temperature;humidity
64683;BME280;51107;47.652;19.016;2023-03-08T00:01:26;98526.53;;;3.49;99.96
64683;BME280;51107;47.652;19.016;2023-03-08T00:03:56;98537.91;;;3.27;100.00
64683;BME280;51107;47.652;19.016;2023-03-08T00:06:26;98536.81;;;3.20;100.00
64683;BME280;51107;47.652;19.016;2023-03-08T00:08:56;98535.56;;;3.04;100.00
64683;BME280;51107;47.652;19.016;2023-03-08T00:11:26;98522.75;;;2.64;100.00
64683;BME280;51107;47.652;19.016;2023-03-08T00:13:55;98525.19;;;2.65;100.00
64683;BME280;51107;47.652;19.016;2023-03-08T00:16:23;98530.34;;;2.75;100.00
64683;BME280;51107;47.652;19.016;2023-03-08T00:18:52;98530.47;;;2.74;100.00
64683;BME280;51107;47.652;19.016;2023-03-08T00:21:20;98518.50;;;2.53;100.00
64683;BME280;51107;47.652;19.016;2023-03-08T00:23:51;98516.19;;;2.19;100.00
64683;BME280;51107;47.652;19.016;2023-03-08T00:26:21;98513.75;;;2.17;100.00
64683;BME280;51107;47.652;19.016;2023-03-08T00:28:49;98503.28;;;1.78;100.00
64683;BME280;51107;47.652;19.016;2023-03-08T00:31:19;98516.88;;;1.90;100.00
64683;BME280;51107;47.652;19.016;2023-03-08T00:33:52;98506.00;;;2.08;100.00
64683;BME280;51107;47.652;19.016;2023-03-08T00:36:21;98510.00;;;2.21;100.00
64683;BME280;51107;47.652;19.016;2023-03-08T00:38:50;98524.06;;;2.27;100.00
64683;BME280;51107;47.652;19.016;2023-03-08T00:41:19;98530.03;;;2.28;100.00
64683;BME280;51107;47.652;19.016;2023-03-08T00:43:48;98534.66;;;2.34;100.00
64683;BME280;51107;47.652;19.016;2023-03-08T00:46:16;98517.75;;;2.31;100.00
64683;BME280;51107;47.652;19.016;2023-03-08T00:48:45;98522.53;;;2.15;100.00
64683;BME280;51107;47.652;19.016;2023-03-08T00:51:16;98510.94;;;2.20;100.00
64683;BME280;51107;47.652;19.016;2023-03-08T00:53:47;98518.94;;;2.27;100.00
64683;BME280;51107;47.652;19.016;2023-03-08T00:56:15;98506.09;;;2.27;100.00
64683;BME280;51107;47.652;19.016;2023-03-08T00:58:44;98511.00;;;2.30;100.00
64683;BME280;51107;47.652;19.016;2023-03-08T01:01:17;98509.50;;;2.28;100.00
64683;BME280;51107;47.652;19.016;2023-03-08T01:03:46;98517.09;;;2.39;100.00
64683;BME280;51107;47.652;19.016;2023-03-08T01:06:16;98521.47;;;2.48;100.00
64683;BME280;51107;47.652;19.016;2023-03-08T01:08:45;98525.19;;;2.65;100.00
64683;BME280;51107;47.652;19.016;2023-03-08T01:11:19;98529.69;;;2.83;100.00
64683;BME280;51107;47.652;19.016;2023-03-08T01:13:48;98525.16;;;3.06;100.00
64683;BME280;51107;47.652;19.016;2023-03-08T01:16:25;98525.31;;;3.34;100.00
64683;BME280;51107;47.652;19.016;2023-03-08T01:18:56;98528.69;;;3.54;100.00
64683;BME280;51107;47.652;19.016;2023-03-08T01:21:28;98535.19;;;3.58;100.00
64683;BME280;51107;47.652;19.016;2023-03-08T01:23:57;98536.00;;;3.59;100.00
64683;BME280;51107;47.652;19.016;2023-03-08T01:26:27;98527.44;;;3.58;100.00
64683;BME280;51107;47.652;19.016;2023-03-08T01:28:56;98544.53;;;3.59;100.00
64683;BME280;51107;47.652;19.016;2023-03-08T01:31:29;98543.59;;;3.50;100.00
64683;BME280;51107;47.652;19.016;2023-03-08T01:33:57;98537.63;;;3.50;100.00
64683;BME280;51107;47.652;19.016;2023-03-08T01:36:27;98545.22;;;3.42;100.00
64683;BME280;51107;47.652;19.016;2023-03-08T01:38:59;98539.81;;;3.35;100.00
64683;BME280;51107;47.652;19.016;2023-03-08T01:41:30;98545.63;;;3.37;100.00
64683;BME280;51107;47.652;19.016;2023-03-08T01:43:59;98545.06;;;3.33;100.00
64683;BME280;51107;47.652;19.016;2023-03-08T01:46:29;98557.12;;;3.43;100.00
64683;BME280;51107;47.652;19.016;2023-03-08T01:54:30;98546.28;;;3.19;100.00
64683;BME280;51107;47.652;19.016;2023-03-08T01:57:13;98552.63;;;3.05;100.00
64683;BME280;51107;47.652;19.016;2023-03-08T01:59:43;98553.69;;;3.03;100.00
64683;BME280;51107;47.652;19.016;2023-03-08T02:02:15;98563.44;;;2.89;100.00
64683;BME280;51107;47.652;19.016;2023-03-08T02:04:46;98570.25;;;2.69;100.00
64683;BME280;51107;47.652;19.016;2023-03-08T02:07:15;98567.47;;;2.51;100.00
64683;BME280;51107;47.652;19.016;2023-03-08T02:09:44;98566.50;;;2.43;100.00
64683;BME280;51107;47.652;19.016;2023-03-08T02:12:14;98577.38;;;2.56;100.00
64683;BME280;51107;47.652;19.016;2023-03-08T02:14:43;98570.09;;;2.61;100.00
64683;BME280;51107;47.652;19.016;2023-03-08T02:17:11;98569.00;;;2.54;100.00
64683;BME280;51107;47.652;19.016;2023-03-08T02:19:54;98567.75;;;2.27;100.00
64683;BME280;51107;47.652;19.016;2023-03-08T02:22:24;98568.16;;;2.23;100.00
64683;BME280;51107;47.652;19.016;2023-03-08T02:24:53;98569.44;;;2.38;100.00
64683;BME280;51107;47.652;19.016;2023-03-08T02:27:26;98574.97;;;2.33;100.00
64683;BME280;51107;47.652;19.016;2023-03-08T02:29:55;98572.28;;;2.35;100.00
64683;BME280;51107;47.652;19.016;2023-03-08T02:32:24;98576.47;;;2.36;100.00
64683;BME280;51107;47.652;19.016;2023-03-08T02:34:52;98572.97;;;2.37;100.00
64683;BME280;51107;47.652;19.016;2023-03-08T02:37:21;98585.44;;;2.42;100.00
64683;BME280;51107;47.652;19.016;2023-03-08T02:39:49;98587.75;;;2.45;100.00
64683;BME280;51107;47.652;19.016;2023-03-08T02:42:17;98594.78;;;2.43;100.00
64683;BME280;51107;47.652;19.016;2023-03-08T02:44:46;98595.28;;;2.36;100.00
64683;BME280;51107;47.652;19.016;2023-03-08T02:47:15;98595.84;;;2.40;100.00
64683;BME280;51107;47.652;19.016;2023-03-08T02:49:44;98593.53;;;2.37;100.00
64683;BME280;51107;47.652;19.016;2023-03-08T02:52:12;98600.09;;;2.30;100.00
64683;BME280;51107;47.652;19.016;2023-03-08T02:54:42;98600.09;;;2.51;100.00
64683;BME280;51107;47.652;19.016;2023-03-08T02:57:11;98596.69;;;2.71;100.00
64683;BME280;51107;47.652;19.016;2023-03-08T02:59:39;98605.75;;;2.76;100.00
64683;BME280;51107;47.652;19.016;2023-03-08T03:02:07;98606.59;;;2.86;100.00
64683;BME280;51107;47.652;19.016;2023-03-08T03:04:36;98609.00;;;2.78;100.00
64683;BME280;51107;47.652;19.016;2023-03-08T03:07:04;98616.63;;;2.89;100.00
64683;BME280;51107;47.652;19.016;2023-03-08T03:09:36;98607.19;;;2.99;100.00
64683;BME280;51107;47.652;19.016;2023-03-08T03:12:04;98614.13;;;3.09;100.00
64683;BME280;51107;47.652;19.016;2023-03-08T03:14:33;98621.03;;;3.08;100.00
64683;BME280;51107;47.652;19.016;2023-03-08T03:17:02;98619.53;;;3.05;100.00
64683;BME280;51107;47.652;19.016;2023-03-08T03:19:30;98634.38;;;2.92;100.00
64683;BME280;51107;47.652;19.016;2023-03-08T03:21:59;98632.72;;;2.81;100.00
64683;BME280;51107;47.652;19.016;2023-03-08T03:24:29;98638.56;;;2.93;100.00
64683;BME280;51107;47.652;19.016;2023-03-08T03:26:57;98633.06;;;2.98;100.00
64683;BME280;51107;47.652;19.016;2023-03-08T03:29:26;98640.19;;;3.25;100.00
64683;BME280;51107;47.652;19.016;2023-03-08T03:31:56;98640.81;;;3.17;100.00
64683;BME280;51107;47.652;19.016;2023-03-08T03:34:24;98641.78;;;3.26;100.00
64683;BME280;51107;47.652;19.016;2023-03-08T03:36:53;98647.38;;;3.31;100.00
64683;BME280;51107;47.652;19.016;2023-03-08T03:39:21;98657.66;;;3.31;100.00
64683;BME280;51107;47.652;19.016;2023-03-08T03:41:49;98654.41;;;3.29;100.00
64683;BME280;51107;47.652;19.016;2023-03-08T03:44:18;98644.78;;;3.21;100.00
64683;BME280;51107;47.652;19.016;2023-03-08T03:46:47;98658.97;;;3.16;100.00
64683;BME280;51107;47.652;19.016;2023-03-08T03:49:16;98650.41;;;3.05;100.00
64683;BME280;51107;47.652;19.016;2023-03-08T03:51:45;98658.13;;;3.05;100.00
64683;BME280;51107;47.652;19.016;2023-03-08T03:54:13;98666.97;;;3.13;100.00
64683;BME280;51107;47.652;19.016;2023-03-08T03:56:42;98664.25;;;3.14;100.00
64683;BME280;51107;47.652;19.016;2023-03-08T03:59:11;98676.56;;;3.11;100.00
64683;BME280;51107;47.652;19.016;2023-03-08T04:01:39;98668.09;;;2.99;100.00
64683;BME280;51107;47.652;19.016;2023-03-08T04:04:10;98675.72;;;3.00;100.00
64683;BME280;51107;47.652;19.016;2023-03-08T04:06:40;98664.91;;;3.06;100.00
64683;BME280;51107;47.652;19.016;2023-03-08T04:09:13;98666.97;;;3.13;100.00
64683;BME280;51107;47.652;19.016;2023-03-08T04:11:49;98664.63;;;3.10;100.00
64683;BME280;51107;47.652;19.016;2023-03-08T04:14:18;98667.31;;;2.98;100.00
64683;BME280;51107;47.652;19.016;2023-03-08T04:16:46;98661.34;;;2.98;100.00
64683;BME280;51107;47.652;19.016;2023-03-08T04:19:14;98652.94;;;2.96;100.00
64683;BME280;51107;47.652;19.016;2023-03-08T04:21:46;98655.94;;;3.01;100.00
64683;BME280;51107;47.652;19.016;2023-03-08T04:24:15;98662.31;;;3.06;100.00
64683;BME280;51107;47.652;19.016;2023-03-08T04:26:45;98648.88;;;3.03;100.00
64683;BME280;51107;47.652;19.016;2023-03-08T04:29:14;98640.19;;;2.94;100.00
64683;BME280;51107;47.652;19.016;2023-03-08T04:31:42;98632.34;;;2.96;100.00
64683;BME280;51107;47.652;19.016;2023-03-08T04:34:11;98657.59;;;3.12;100.00
64683;BME280;51107;47.652;19.016;2023-03-08T04:36:40;98665.34;;;3.12;100.00
64683;BME280;51107;47.652;19.016;2023-03-08T04:39:09;98667.53;;;2.85;100.00
64683;BME280;51107;47.652;19.016;2023-03-08T04:41:37;98675.03;;;2.67;100.00
64683;BME280;51107;47.652;19.016;2023-03-08T04:44:07;98667.53;;;2.64;100.00
64683;BME280;51107;47.652;19.016;2023-03-08T04:46:36;98674.84;;;2.59;100.00
64683;BME280;51107;47.652;19.016;2023-03-08T04:49:05;98680.41;;;2.64;100.00
64683;BME280;51107;47.652;19.016;2023-03-08T04:51:34;98672.69;;;2.64;100.00
64683;BME280;51107;47.652;19.016;2023-03-08T04:54:02;98675.94;;;2.66;100.00
64683;BME280;51107;47.652;19.016;2023-03-08T04:56:31;98686.56;;;2.73;100.00
64683;BME280;51107;47.652;19.016;2023-03-08T04:59:00;98680.16;;;2.67;100.00
64683;BME280;51107;47.652;19.016;2023-03-08T05:01:29;98679.19;;;2.68;100.00
64683;BME280;51107;47.652;19.016;2023-03-08T05:03:58;98681.75;;;2.68;100.00
64683;BME280;51107;47.652;19.016;2023-03-08T05:06:27;98683.28;;;2.71;100.00
64683;BME280;51107;47.652;19.016;2023-03-08T05:08:56;98687.78;;;2.79;100.00
64683;BME280;51107;47.652;19.016;2023-03-08T05:11:26;98687.03;;;2.88;100.00
64683;BME280;51107;47.652;19.016;2023-03-08T05:13:57;98674.19;;;2.88;100.00
64683;BME280;51107;47.652;19.016;2023-03-08T05:16:26;98690.31;;;3.00;100.00
64683;BME280;51107;47.652;19.016;2023-03-08T05:18:55;98678.16;;;3.02;100.00
64683;BME280;51107;47.652;19.016;2023-03-08T05:21:25;98677.59;;;2.98;100.00
64683;BME280;51107;47.652;19.016;2023-03-08T05:23:54;98687.75;;;3.00;100.00
64683;BME280;51107;47.652;19.016;2023-03-08T05:26:26;98684.19;;;2.91;100.00
64683;BME280;51107;47.652;19.016;2023-03-08T05:28:56;98676.53;;;3.01;100.00
64683;BME280;51107;47.652;19.016;2023-03-08T05:31:24;98689.53;;;2.99;100.00
64683;BME280;51107;47.652;19.016;2023-03-08T05:33:53;98690.37;;;3.10;100.00
64683;BME280;51107;47.652;19.016;2023-03-08T05:36:23;98693.97;;;2.97;100.00
64683;BME280;51107;47.652;19.016;2023-03-08T05:38:53;98705.41;;;3.04;100.00
64683;BME280;51107;47.652;19.016;2023-03-08T05:41:22;98703.94;;;3.12;98.39
64683;BME280;51107;47.652;19.016;2023-03-08T05:43:51;98706.37;;;3.13;98.57
64683;BME280;51107;47.652;19.016;2023-03-08T05:46:19;98706.56;;;3.31;93.67
64683;BME280;51107;47.652;19.016;2023-03-08T05:48:48;98717.84;;;3.40;92.60
64683;BME280;51107;47.652;19.016;2023-03-08T05:51:18;98715.19;;;3.61;90.17
64683;BME280;51107;47.652;19.016;2023-03-08T05:53:46;98715.53;;;3.87;83.24
64683;BME280;51107;47.652;19.016;2023-03-08T05:56:20;98725.28;;;3.94;84.65
64683;BME280;51107;47.652;19.016;2023-03-08T05:58:50;98730.88;;;4.48;77.54
64683;BME280;51107;47.652;19.016;2023-03-08T06:01:22;98735.91;;;4.39;78.20
64683;BME280;51107;47.652;19.016;2023-03-08T06:03:54;98731.50;;;4.69;75.37
64683;BME280;51107;47.652;19.016;2023-03-08T06:06:26;98750.09;;;4.83;73.90
64683;BME280;51107;47.652;19.016;2023-03-08T06:08:57;98752.13;;;4.79;73.94
64683;BME280;51107;47.652;19.016;2023-03-08T06:11:26;98750.31;;;5.09;70.03
64683;BME280;51107;47.652;19.016;2023-03-08T06:13:55;98753.00;;;5.17;69.13
64683;BME280;51107;47.652;19.016;2023-03-08T06:16:24;98761.53;;;5.18;69.30
64683;BME280;51107;47.652;19.016;2023-03-08T06:18:52;98760.09;;;5.05;72.39
64683;BME280;51107;47.652;19.016;2023-03-08T06:21:21;98763.44;;;5.25;68.74
64683;BME280;51107;47.652;19.016;2023-03-08T06:23:50;98765.78;;;5.09;71.18
64683;BME280;51107;47.652;19.016;2023-03-08T06:26:19;98768.38;;;5.09;72.49
64683;BME280;51107;47.652;19.016;2023-03-08T06:28:47;98772.16;;;5.15;70.30
64683;BME280;51107;47.652;19.016;2023-03-08T06:31:18;98769.19;;;5.09;72.01
64683;BME280;51107;47.652;19.016;2023-03-08T06:33:46;98771.97;;;5.26;70.98
64683;BME280;51107;47.652;19.016;2023-03-08T06:36:19;98786.09;;;5.41;70.07
64683;BME280;51107;47.652;19.016;2023-03-08T06:38:49;98779.09;;;5.52;70.91
64683;BME280;51107;47.652;19.016;2023-03-08T06:41:19;98790.63;;;5.57;70.20
64683;BME280;51107;47.652;19.016;2023-03-08T06:43:48;98786.72;;;5.81;67.75
64683;BME280;51107;47.652;19.016;2023-03-08T06:46:17;98783.03;;;5.84;68.41
64683;BME280;51107;47.652;19.016;2023-03-08T06:48:47;98782.97;;;5.93;67.24
64683;BME280;51107;47.652;19.016;2023-03-08T06:51:16;98799.31;;;5.94;66.44
64683;BME280;51107;47.652;19.016;2023-03-08T06:53:46;98799.94;;;6.24;62.75
64683;BME280;51107;47.652;19.016;2023-03-08T06:56:16;98801.44;;;6.44;61.55
64683;BME280;51107;47.652;19.016;2023-03-08T06:58:45;98816.38;;;6.33;62.26
64683;BME280;51107;47.652;19.016;2023-03-08T07:01:13;98812.37;;;6.20;61.64
64683;BME280;51107;47.652;19.016;2023-03-08T07:03:42;98806.25;;;6.21;60.35
64683;BME280;51107;47.652;19.016;2023-03-08T07:06:12;98820.22;;;6.28;61.41
64683;BME280;51107;47.652;19.016;2023-03-08T07:08:40;98827.22;;;6.18;61.65
64683;BME280;51107;47.652;19.016;2023-03-08T07:11:09;98827.22;;;6.18;61.20
64683;BME280;51107;47.652;19.016;2023-03-08T07:13:37;98829.22;;;6.06;61.53
64683;BME280;51107;47.652;19.016;2023-03-08T07:16:08;98836.56;;;6.01;63.42
64683;BME280;51107;47.652;19.016;2023-03-08T07:18:37;98839.72;;;6.23;60.47
64683;BME280;51107;47.652;19.016;2023-03-08T07:21:07;98840.09;;;6.28;60.27
64683;BME280;51107;47.652;19.016;2023-03-08T07:23:37;98841.41;;;6.14;60.45
64683;BME280;51107;47.652;19.016;2023-03-08T07:26:06;98846.72;;;6.12;60.57
64683;BME280;51107;47.652;19.016;2023-03-08T07:28:35;98836.47;;;6.21;59.79
64683;BME280;51107;47.652;19.016;2023-03-08T07:31:05;98842.97;;;6.25;61.13
64683;BME280;51107;47.652;19.016;2023-03-08T07:33:33;98844.00;;;6.32;62.15
64683;BME280;51107;47.652;19.016;2023-03-08T07:36:01;98843.16;;;6.59;58.84
64683;BME280;51107;47.652;19.016;2023-03-08T07:38:30;98846.91;;;6.65;58.27
64683;BME280;51107;47.652;19.016;2023-03-08T07:40:58;98843.91;;;6.52;59.62
64683;BME280;51107;47.652;19.016;2023-03-08T07:43:27;98847.06;;;6.63;58.19
64683;BME280;51107;47.652;19.016;2023-03-08T07:45:58;98851.88;;;6.76;58.25
64683;BME280;51107;47.652;19.016;2023-03-08T07:48:28;98864.19;;;7.01;56.76
64683;BME280;51107;47.652;19.016;2023-03-08T07:51:04;98859.19;;;6.99;57.30
64683;BME280;51107;47.652;19.016;2023-03-08T07:53:36;98870.28;;;6.73;57.53
64683;BME280;51107;47.652;19.016;2023-03-08T07:56:05;98862.88;;;6.78;59.26
64683;BME280;51107;47.652;19.016;2023-03-08T07:58:33;98855.28;;;6.77;58.63
64683;BME280;51107;47.652;19.016;2023-03-08T08:01:12;98868.00;;;6.70;57.95
64683;BME280;51107;47.652;19.016;2023-03-08T08:03:41;98867.75;;;7.00;56.63
64683;BME280;51107;47.652;19.016;2023-03-08T08:06:10;98858.88;;;6.84;57.61
64683;BME280;51107;47.652;19.016;2023-03-08T08:08:38;98864.81;;;6.76;57.65
64683;BME280;51107;47.652;19.016;2023-03-08T08:11:13;98872.44;;;6.96;57.04
64683;BME280;51107;47.652;19.016;2023-03-08T08:13:42;98868.50;;;6.92;57.48
64683;BME280;51107;47.652;19.016;2023-03-08T08:16:11;98880.97;;;7.14;57.52
64683;BME280;51107;47.652;19.016;2023-03-08T08:18:41;98884.69;;;7.38;56.65
64683;BME280;51107;47.652;19.016;2023-03-08T08:21:12;98887.53;;;7.79;54.24
64683;BME280;51107;47.652;19.016;2023-03-08T08:23:41;98900.22;;;7.82;54.20
64683;BME280;51107;47.652;19.016;2023-03-08T08:26:16;98893.75;;;7.87;53.53
64683;BME280;51107;47.652;19.016;2023-03-08T08:28:48;98898.22;;;7.76;54.63
64683;BME280;51107;47.652;19.016;2023-03-08T08:31:19;98908.12;;;7.55;56.70
64683;BME280;51107;47.652;19.016;2023-03-08T08:33:49;98897.66;;;7.56;56.27
64683;BME280;51107;47.652;19.016;2023-03-08T08:36:18;98894.31;;;7.72;56.65
64683;BME280;51107;47.652;19.016;2023-03-08T08:38:47;98889.97;;;8.07;55.57
64683;BME280;51107;47.652;19.016;2023-03-08T08:41:19;98886.72;;;8.13;57.14
64683;BME280;51107;47.652;19.016;2023-03-08T08:43:48;98883.88;;;8.33;56.70
64683;BME280;51107;47.652;19.016;2023-03-08T08:46:17;98900.19;;;8.60;54.87
64683;BME280;51107;47.652;19.016;2023-03-08T08:48:45;98886.75;;;8.81;51.66
64683;BME280;51107;47.652;19.016;2023-03-08T08:51:14;98889.16;;;8.58;52.85
64683;BME280;51107;47.652;19.016;2023-03-08T08:53:42;98892.56;;;8.50;53.55
64683;BME280;51107;47.652;19.016;2023-03-08T08:56:16;98878.69;;;8.41;52.94
64683;BME280;51107;47.652;19.016;2023-03-08T08:58:56;98880.09;;;8.78;54.19
64683;BME280;51107;47.652;19.016;2023-03-08T09:01:30;98874.09;;;9.35;52.52
64683;BME280;51107;47.652;19.016;2023-03-08T09:03:59;98869.53;;;8.96;50.67
64683;BME280;51107;47.652;19.016;2023-03-08T09:06:28;98863.72;;;8.86;51.41
64683;BME280;51107;47.652;19.016;2023-03-08T09:08:58;98864.34;;;9.05;53.64
64683;BME280;51107;47.652;19.016;2023-03-08T09:11:27;98847.75;;;9.95;49.77
64683;BME280;51107;47.652;19.016;2023-03-08T09:13:55;98859.44;;;10.39;48.62
64683;BME280;51107;47.652;19.016;2023-03-08T09:16:29;98850.56;;;10.16;49.88
64683;BME280;51107;47.652;19.016;2023-03-08T09:19:01;98851.72;;;9.74;49.48
64683;BME280;51107;47.652;19.016;2023-03-08T09:21:32;98870.69;;;9.10;51.11
64683;BME280;51107;47.652;19.016;2023-03-08T09:24:03;98862.56;;;8.72;52.69
64683;BME280;51107;47.652;19.016;2023-03-08T09:26:32;98860.44;;;8.67;53.46
64683;BME280;51107;47.652;19.016;2023-03-08T09:29:02;98847.63;;;9.15;53.51
64683;BME280;51107;47.652;19.016;2023-03-08T09:31:36;98842.94;;;9.83;49.86
64683;BME280;51107;47.652;19.016;2023-03-08T09:34:05;98841.06;;;10.32;48.65
64683;BME280;51107;47.652;19.016;2023-03-08T09:36:37;98835.78;;;10.71;48.72
64683;BME280;51107;47.652;19.016;2023-03-08T09:39:10;98836.94;;;11.75;47.22
64683;BME280;51107;47.652;19.016;2023-03-08T09:41:59;98846.00;;;11.94;45.67
64683;BME280;51107;47.652;19.016;2023-03-08T09:50:31;98845.09;;;11.87;45.57
64683;BME280;51107;47.652;19.016;2023-03-08T09:53:09;98850.59;;;11.77;45.82
64683;BME280;51107;47.652;19.016;2023-03-08T09:55:46;98848.78;;;11.93;45.12
64683;BME280;51107;47.652;19.016;2023-03-08T09:58:31;98842.81;;;12.29;44.03
64683;BME280;51107;47.652;19.016;2023-03-08T10:09:53;98833.53;;;13.13;41.20
64683;BME280;51107;47.652;19.016;2023-03-08T10:12:26;98830.28;;;13.11;42.58
64683;BME280;51107;47.652;19.016;2023-03-08T10:15:08;98826.63;;;12.83;40.80
64683;BME280;51107;47.652;19.016;2023-03-08T10:17:45;98837.84;;;12.55;41.01
64683;BME280;51107;47.652;19.016;2023-03-08T10:20:41;98831.53;;;11.62;41.95
64683;BME280;51107;47.652;19.016;2023-03-08T10:23:20;98823.72;;;10.94;43.72
64683;BME280;51107;47.652;19.016;2023-03-08T10:25:49;98826.91;;;10.58;45.67
64683;BME280;51107;47.652;19.016;2023-03-08T10:28:23;98832.59;;;10.38;44.83
64683;BME280;51107;47.652;19.016;2023-03-08T10:30:55;98831.09;;;10.44;44.98
64683;BME280;51107;47.652;19.016;2023-03-08T10:33:33;98827.00;;;10.18;46.03
64683;BME280;51107;47.652;19.016;2023-03-08T10:38:55;98833.25;;;10.40;47.17
64683;BME280;51107;47.652;19.016;2023-03-08T10:41:24;98834.63;;;10.19;45.72
64683;BME280;51107;47.652;19.016;2023-03-08T10:43:54;98833.34;;;10.15;45.44
64683;BME280;51107;47.652;19.016;2023-03-08T10:46:27;98831.69;;;10.23;44.96
64683;BME280;51107;47.652;19.016;2023-03-08T10:49:15;98830.34;;;10.27;45.67
64683;BME280;51107;47.652;19.016;2023-03-08T10:54:23;98811.13;;;10.36;43.52
64683;BME280;51107;47.652;19.016;2023-03-08T10:56:59;98820.50;;;10.45;44.51
64683;BME280;51107;47.652;19.016;2023-03-08T10:59:31;98811.53;;;10.48;43.91
64683;BME280;51107;47.652;19.016;2023-03-08T11:02:23;98805.69;;;10.46;44.74
64683;BME280;51107;47.652;19.016;2023-03-08T11:04:53;98805.09;;;10.35;42.54
64683;BME280;51107;47.652;19.016;2023-03-08T11:07:31;98797.78;;;10.39;43.31
64683;BME280;51107;47.652;19.016;2023-03-08T11:10:17;98809.56;;;10.50;43.51
64683;BME280;51107;47.652;19.016;2023-03-08T11:12:46;98798.38;;;10.64;43.94
64683;BME280;51107;47.652;19.016;2023-03-08T11:15:16;98788.72;;;10.73;42.90
64683;BME280;51107;47.652;19.016;2023-03-08T11:18:07;98784.56;;;10.64;44.36
64683;BME280;51107;47.652;19.016;2023-03-08T11:20:45;98790.47;;;10.58;44.74
64683;BME280;51107;47.652;19.016;2023-03-08T11:23:42;98789.37;;;10.52;44.28
64683;BME280;51107;47.652;19.016;2023-03-08T11:26:25;98793.78;;;10.51;45.23
64683;BME280;51107;47.652;19.016;2023-03-08T11:31:52;98794.88;;;10.57;45.18
64683;BME280;51107;47.652;19.016;2023-03-08T11:34:41;98782.66;;;10.58;43.80
64683;BME280;51107;47.652;19.016;2023-03-08T11:45:17;98771.25;;;10.59;45.64
64683;BME280;51107;47.652;19.016;2023-03-08T11:50:51;98770.41;;;10.43;46.80
64683;BME280;51107;47.652;19.016;2023-03-08T11:53:42;98777.75;;;10.31;47.00
64683;BME280;51107;47.652;19.016;2023-03-08T11:56:56;98775.84;;;10.02;47.12
64683;BME280;51107;47.652;19.016;2023-03-08T11:59:34;98778.28;;;10.03;47.83
64683;BME280;51107;47.652;19.016;2023-03-08T12:07:19;98768.91;;;9.55;49.31
64683;BME280;51107;47.652;19.016;2023-03-08T12:10:03;98764.38;;;9.48;50.38
64683;BME280;51107;47.652;19.016;2023-03-08T12:12:44;98755.78;;;9.48;49.43
64683;BME280;51107;47.652;19.016;2023-03-08T12:18:19;98740.47;;;9.53;48.44
64683;BME280;51107;47.652;19.016;2023-03-08T12:26:44;98734.59;;;9.59;49.47
64683;BME280;51107;47.652;19.016;2023-03-08T12:32:04;98739.00;;;9.59;49.88
64683;BME280;51107;47.652;19.016;2023-03-08T12:34:44;98732.81;;;9.60;50.25
64683;BME280;51107;47.652;19.016;2023-03-08T12:37:24;98735.56;;;9.58;49.31
64683;BME280;51107;47.652;19.016;2023-03-08T12:40:05;98721.00;;;9.49;48.28
64683;BME280;51107;47.652;19.016;2023-03-08T12:42:40;98718.56;;;9.47;48.48
64683;BME280;51107;47.652;19.016;2023-03-08T12:48:01;98714.19;;;9.48;49.20
64683;BME280;51107;47.652;19.016;2023-03-08T12:50:45;98709.12;;;9.55;48.69
64683;BME280;51107;47.652;19.016;2023-03-08T13:01:39;98678.72;;;9.55;47.23
64683;BME280;51107;47.652;19.016;2023-03-08T13:04:28;98671.53;;;9.89;47.53
64683;BME280;51107;47.652;19.016;2023-03-08T13:07:26;98662.63;;;10.06;46.06
64683;BME280;51107;47.652;19.016;2023-03-08T13:10:22;98649.12;;;10.26;46.73
64683;BME280;51107;47.652;19.016;2023-03-08T13:18:48;98653.72;;;9.77;45.43
64683;BME280;51107;47.652;19.016;2023-03-08T13:21:31;98647.78;;;9.68;45.22
64683;BME280;51107;47.652;19.016;2023-03-08T13:29:19;98616.44;;;9.62;46.52
64683;BME280;51107;47.652;19.016;2023-03-08T13:31:48;98610.78;;;9.58;46.72
64683;BME280;51107;47.652;19.016;2023-03-08T13:34:29;98592.56;;;9.58;46.89
64683;BME280;51107;47.652;19.016;2023-03-08T13:36:58;98600.78;;;9.70;47.31
64683;BME280;51107;47.652;19.016;2023-03-08T13:39:28;98597.94;;;9.80;47.60
64683;BME280;51107;47.652;19.016;2023-03-08T13:42:09;98588.28;;;9.89;48.67
64683;BME280;51107;47.652;19.016;2023-03-08T13:44:38;98592.56;;;9.81;47.98
64683;BME280;51107;47.652;19.016;2023-03-08T13:47:24;98585.88;;;9.64;47.52
64683;BME280;51107;47.652;19.016;2023-03-08T13:49:54;98586.94;;;9.55;48.63
64683;BME280;51107;47.652;19.016;2023-03-08T13:52:27;98580.72;;;9.56;48.76
64683;BME280;51107;47.652;19.016;2023-03-08T13:55:00;98576.34;;;9.56;48.57
64683;BME280;51107;47.652;19.016;2023-03-08T13:57:36;98579.28;;;9.53;48.08
64683;BME280;51107;47.652;19.016;2023-03-08T14:02:46;98593.78;;;9.47;47.34
64683;BME280;51107;47.652;19.016;2023-03-08T14:05:21;98601.09;;;9.52;47.61
64683;BME280;51107;47.652;19.016;2023-03-08T14:08:06;98596.28;;;9.64;47.63
64683;BME280;51107;47.652;19.016;2023-03-08T14:10:38;98588.75;;;9.69;47.89
64683;BME280;51107;47.652;19.016;2023-03-08T14:13:31;98572.00;;;9.72;46.92
64683;BME280;51107;47.652;19.016;2023-03-08T14:16:04;98576.75;;;9.68;47.21
64683;BME280;51107;47.652;19.016;2023-03-08T14:18:41;98569.59;;;9.70;48.04
64683;BME280;51107;47.652;19.016;2023-03-08T14:21:15;98576.41;;;9.71;48.06
64683;BME280;51107;47.652;19.016;2023-03-08T14:23:49;98576.16;;;9.81;48.60
64683;BME280;51107;47.652;19.016;2023-03-08T14:26:38;98582.09;;;9.90;48.49
64683;BME280;51107;47.652;19.016;2023-03-08T14:29:15;98579.41;;;9.83;48.56
64683;BME280;51107;47.652;19.016;2023-03-08T14:34:41;98564.75;;;9.82;48.67
64683;BME280;51107;47.652;19.016;2023-03-08T14:39:53;98584.78;;;9.81;49.61
64683;BME280;51107;47.652;19.016;2023-03-08T14:42:33;98596.81;;;9.82;49.66
64683;BME280;51107;47.652;19.016;2023-03-08T14:45:15;98590.78;;;9.82;49.49
64683;BME280;51107;47.652;19.016;2023-03-08T14:53:36;98579.09;;;9.78;51.77